Terminal Aerodrome Forecast
Issued by NWS

Current Version | Previous Version | Text Only | Print | Product List | Glossary On
Versions: 1 2 3 4 5 6 7 8 9 10 11 12 13 14 15 16 17 18 19 20 21 22 23 24 25 26 27 28 29 30 31 32 33 34 35 36 37 38
000 FTUS42 KRAH 031735 TAFRWI TAF KRWI 031735Z 0318/0418 06005KT P6SM OVC040 FM032200 VRB05KT P6SM OVC025 FM040000 05005KT 3SM BR OVC007 FM040500 VRB03KT 1/2SM FG VV002 FM041600 22012G18KT P6SM OVC015=

USA.gov is the U.S. government's official web portal to all federal, state and local government web resources and services.